Terminal Aerodrome Forecast
Issued by NWS

Home | Current Version | Previous Version | Text Only | Print | Product List | Glossary On
Versions: 1 2 3 4 5 6 7 8 9 10 11 12 13 14 15 16 17 18 19 20
390
FTUS44 KLIX 202321
TAFMCB
TAF
KMCB 202321Z 2100/2124 14008KT P6SM VCSH BKN035 BKN070
     FM210300 14009KT 3SM -SHRA BR OVC010
     FM211300 34004KT 2SM -SHRA BR OVC008=

USA.gov is the U.S. government's official web portal to all federal, state and local government web resources and services.